sensor_id;sensor_type;location;lat;lon;timestamp;P1;durP1;ratioP1;P2;durP2;ratioP2
37341;SDS011;58643;49.052;8.518;2023-09-30T08:55:48;8.23;;;4.38;;
37341;SDS011;58643;49.052;8.518;2023-09-30T08:58:24;16.20;;;5.07;;
37341;SDS011;58643;49.052;8.518;2023-09-30T09:32:39;10.60;;;3.10;;
37341;SDS011;58643;49.052;8.518;2023-09-30T09:35:04;7.40;;;3.38;;
37341;SDS011;58643;49.052;8.518;2023-09-30T09:37:32;7.70;;;3.40;;
37341;SDS011;58643;49.052;8.518;2023-09-30T09:39:58;7.78;;;3.00;;
37341;SDS011;58643;49.052;8.518;2023-09-30T09:42:27;9.70;;;3.25;;
37341;SDS011;58643;49.052;8.518;2023-09-30T10:06:58;6.63;;;3.10;;
37341;SDS011;58643;49.052;8.518;2023-09-30T10:09:24;9.73;;;3.40;;
37341;SDS011;58643;49.052;8.518;2023-09-30T10:11:56;8.73;;;3.60;;
37341;SDS011;58643;49.052;8.518;2023-09-30T10:14:33;7.95;;;3.00;;
37341;SDS011;58643;49.052;8.518;2023-09-30T10:16:59;6.05;;;3.10;;
37341;SDS011;58643;49.052;8.518;2023-09-30T10:19:24;12.18;;;4.03;;
37341;SDS011;58643;49.052;8.518;2023-09-30T10:24:42;10.38;;;3.80;;
37341;SDS011;58643;49.052;8.518;2023-09-30T10:27:27;8.77;;;3.45;;
37341;SDS011;58643;49.052;8.518;2023-09-30T10:29:56;11.77;;;3.72;;
37341;SDS011;58643;49.052;8.518;2023-09-30T10:32:55;9.15;;;3.50;;
37341;SDS011;58643;49.052;8.518;2023-09-30T10:40:47;9.05;;;3.22;;
37341;SDS011;58643;49.052;8.518;2023-09-30T10:43:33;8.73;;;3.30;;
37341;SDS011;58643;49.052;8.518;2023-09-30T10:45:59;10.10;;;3.38;;
37341;SDS011;58643;49.052;8.518;2023-09-30T10:50:52;6.80;;;3.50;;
37341;SDS011;58643;49.052;8.518;2023-09-30T10:53:23;7.53;;;3.55;;
37341;SDS011;58643;49.052;8.518;2023-09-30T10:55:53;5.95;;;3.17;;
37341;SDS011;58643;49.052;8.518;2023-09-30T11:01:31;9.93;;;3.55;;
37341;SDS011;58643;49.052;8.518;2023-09-30T11:03:58;8.27;;;3.67;;
37341;SDS011;58643;49.052;8.518;2023-09-30T11:06:28;8.73;;;3.17;;
37341;SDS011;58643;49.052;8.518;2023-09-30T11:08:57;13.45;;;3.67;;
37341;SDS011;58643;49.052;8.518;2023-09-30T11:11:58;8.35;;;3.05;;
37341;SDS011;58643;49.052;8.518;2023-09-30T11:16:49;5.43;;;2.67;;
37341;SDS011;58643;49.052;8.518;2023-09-30T11:19:16;9.88;;;3.17;;
37341;SDS011;58643;49.052;8.518;2023-09-30T11:21:43;10.52;;;3.60;;
37341;SDS011;58643;49.052;8.518;2023-09-30T11:24:09;7.57;;;3.17;;
37341;SDS011;58643;49.052;8.518;2023-09-30T11:26:37;8.10;;;3.33;;
37341;SDS011;58643;49.052;8.518;2023-09-30T11:31:41;10.38;;;3.60;;
37341;SDS011;58643;49.052;8.518;2023-09-30T11:34:09;10.27;;;3.58;;
37341;SDS011;58643;49.052;8.518;2023-09-30T11:36:40;9.90;;;3.38;;
37341;SDS011;58643;49.052;8.518;2023-09-30T11:39:08;10.02;;;3.38;;
37341;SDS011;58643;49.052;8.518;2023-09-30T11:44:09;9.30;;;3.47;;
37341;SDS011;58643;49.052;8.518;2023-09-30T11:46:55;8.18;;;3.55;;
37341;SDS011;58643;49.052;8.518;2023-09-30T11:51:56;6.97;;;3.47;;
37341;SDS011;58643;49.052;8.518;2023-09-30T11:54:28;10.45;;;3.88;;
37341;SDS011;58643;49.052;8.518;2023-09-30T11:57:14;8.18;;;3.67;;
37341;SDS011;58643;49.052;8.518;2023-09-30T11:59:41;10.23;;;3.78;;
37341;SDS011;58643;49.052;8.518;2023-09-30T12:02:10;9.57;;;3.65;;
37341;SDS011;58643;49.052;8.518;2023-09-30T12:04:40;8.98;;;3.78;;
37341;SDS011;58643;49.052;8.518;2023-09-30T12:07:06;7.25;;;3.53;;
37341;SDS011;58643;49.052;8.518;2023-09-30T12:09:33;10.68;;;3.72;;
37341;SDS011;58643;49.052;8.518;2023-09-30T12:12:02;7.85;;;3.65;;
37341;SDS011;58643;49.052;8.518;2023-09-30T12:14:28;7.50;;;3.33;;
37341;SDS011;58643;49.052;8.518;2023-09-30T12:16:57;8.52;;;3.17;;
37341;SDS011;58643;49.052;8.518;2023-09-30T12:19:23;9.77;;;4.15;;
37341;SDS011;58643;49.052;8.518;2023-09-30T12:21:49;7.97;;;3.47;;
37341;SDS011;58643;49.052;8.518;2023-09-30T12:24:15;10.40;;;3.90;;
37341;SDS011;58643;49.052;8.518;2023-09-30T12:26:45;9.50;;;3.95;;
37341;SDS011;58643;49.052;8.518;2023-09-30T12:29:15;10.15;;;3.55;;
37341;SDS011;58643;49.052;8.518;2023-09-30T12:31:42;9.57;;;3.90;;
37341;SDS011;58643;49.052;8.518;2023-09-30T12:34:09;10.82;;;5.68;;
37341;SDS011;58643;49.052;8.518;2023-09-30T12:36:34;8.93;;;3.78;;
37341;SDS011;58643;49.052;8.518;2023-09-30T12:39:00;9.57;;;4.00;;
37341;SDS011;58643;49.052;8.518;2023-09-30T12:41:25;9.63;;;4.50;;
37341;SDS011;58643;49.052;8.518;2023-09-30T12:43:51;10.63;;;3.38;;
37341;SDS011;58643;49.052;8.518;2023-09-30T12:46:18;10.50;;;3.67;;
37341;SDS011;58643;49.052;8.518;2023-09-30T12:48:43;8.68;;;3.38;;
37341;SDS011;58643;49.052;8.518;2023-09-30T12:51:09;7.15;;;3.30;;
37341;SDS011;58643;49.052;8.518;2023-09-30T12:53:35;9.48;;;3.92;;
37341;SDS011;58643;49.052;8.518;2023-09-30T12:56:01;8.20;;;3.70;;
37341;SDS011;58643;49.052;8.518;2023-09-30T12:58:27;10.02;;;4.13;;
37341;SDS011;58643;49.052;8.518;2023-09-30T13:00:53;8.23;;;3.45;;
37341;SDS011;58643;49.052;8.518;2023-09-30T13:03:20;7.05;;;3.65;;
37341;SDS011;58643;49.052;8.518;2023-09-30T13:05:45;9.43;;;3.40;;
37341;SDS011;58643;49.052;8.518;2023-09-30T13:08:11;8.98;;;3.83;;
37341;SDS011;58643;49.052;8.518;2023-09-30T13:10:37;9.57;;;3.38;;
37341;SDS011;58643;49.052;8.518;2023-09-30T13:13:03;17.38;;;4.45;;
37341;SDS011;58643;49.052;8.518;2023-09-30T13:15:29;8.43;;;3.60;;
37341;SDS011;58643;49.052;8.518;2023-09-30T13:17:54;8.82;;;3.85;;
37341;SDS011;58643;49.052;8.518;2023-09-30T13:20:20;8.57;;;4.30;;
37341;SDS011;58643;49.052;8.518;2023-09-30T13:22:45;7.82;;;3.80;;
37341;SDS011;58643;49.052;8.518;2023-09-30T13:25:11;9.05;;;4.28;;
37341;SDS011;58643;49.052;8.518;2023-09-30T13:27:40;9.90;;;4.05;;
37341;SDS011;58643;49.052;8.518;2023-09-30T13:30:07;8.93;;;3.90;;
37341;SDS011;58643;49.052;8.518;2023-09-30T13:32:33;8.70;;;3.72;;
37341;SDS011;58643;49.052;8.518;2023-09-30T13:35:02;12.18;;;4.38;;
37341;SDS011;58643;49.052;8.518;2023-09-30T13:37:30;8.77;;;3.88;;
37341;SDS011;58643;49.052;8.518;2023-09-30T13:39:58;10.73;;;5.15;;
37341;SDS011;58643;49.052;8.518;2023-09-30T13:42:25;9.55;;;3.88;;
37341;SDS011;58643;49.052;8.518;2023-09-30T13:44:50;11.00;;;5.03;;
37341;SDS011;58643;49.052;8.518;2023-09-30T13:47:16;11.68;;;4.32;;
37341;SDS011;58643;49.052;8.518;2023-09-30T13:49:41;9.30;;;4.20;;
37341;SDS011;58643;49.052;8.518;2023-09-30T13:52:07;11.82;;;5.18;;
37341;SDS011;58643;49.052;8.518;2023-09-30T13:54:33;10.38;;;4.60;;
37341;SDS011;58643;49.052;8.518;2023-09-30T13:56:58;12.13;;;4.93;;
37341;SDS011;58643;49.052;8.518;2023-09-30T13:59:24;10.60;;;4.60;;
37341;SDS011;58643;49.052;8.518;2023-09-30T14:01:50;11.30;;;5.43;;
37341;SDS011;58643;49.052;8.518;2023-09-30T14:04:15;9.98;;;4.57;;
37341;SDS011;58643;49.052;8.518;2023-09-30T14:06:41;10.88;;;5.18;;
37341;SDS011;58643;49.052;8.518;2023-09-30T14:09:07;11.48;;;4.30;;
37341;SDS011;58643;49.052;8.518;2023-09-30T14:11:39;12.45;;;5.28;;
37341;SDS011;58643;49.052;8.518;2023-09-30T14:14:06;10.40;;;4.82;;
37341;SDS011;58643;49.052;8.518;2023-09-30T14:16:34;11.70;;;4.65;;
37341;SDS011;58643;49.052;8.518;2023-09-30T14:19:02;8.60;;;4.57;;
37341;SDS011;58643;49.052;8.518;2023-09-30T14:21:28;8.73;;;4.18;;
37341;SDS011;58643;49.052;8.518;2023-09-30T14:23:54;7.88;;;4.28;;
37341;SDS011;58643;49.052;8.518;2023-09-30T14:26:20;9.93;;;4.63;;
37341;SDS011;58643;49.052;8.518;2023-09-30T14:28:45;11.43;;;4.68;;
37341;SDS011;58643;49.052;8.518;2023-09-30T14:31:11;10.75;;;4.55;;
37341;SDS011;58643;49.052;8.518;2023-09-30T14:33:37;12.68;;;4.95;;
37341;SDS011;58643;49.052;8.518;2023-09-30T14:36:03;12.23;;;4.80;;
37341;SDS011;58643;49.052;8.518;2023-09-30T14:38:31;10.15;;;4.50;;
37341;SDS011;58643;49.052;8.518;2023-09-30T14:40:57;10.10;;;4.60;;
37341;SDS011;58643;49.052;8.518;2023-09-30T14:43:23;11.50;;;4.88;;
37341;SDS011;58643;49.052;8.518;2023-09-30T14:45:49;9.73;;;4.85;;
37341;SDS011;58643;49.052;8.518;2023-09-30T14:48:14;10.80;;;4.80;;
37341;SDS011;58643;49.052;8.518;2023-09-30T14:50:49;12.80;;;5.40;;
37341;SDS011;58643;49.052;8.518;2023-09-30T14:53:16;10.60;;;5.22;;
